sensor_id;sensor_type;location;lat;lon;timestamp;temperature;humidity
2002;DHT22;1003;48.002;7.788;2023-12-14T00:00:47;7.10;99.90
2002;DHT22;1003;48.002;7.788;2023-12-14T00:03:14;7.10;99.90
2002;DHT22;1003;48.002;7.788;2023-12-14T00:05:41;7.10;99.90
2002;DHT22;1003;48.002;7.788;2023-12-14T00:08:08;7.20;99.90
2002;DHT22;1003;48.002;7.788;2023-12-14T00:10:35;7.10;99.90
2002;DHT22;1003;48.002;7.788;2023-12-14T00:13:02;7.10;99.90
2002;DHT22;1003;48.002;7.788;2023-12-14T00:15:29;7.10;99.90
2002;DHT22;1003;48.002;7.788;2023-12-14T00:17:58;7.10;99.90
2002;DHT22;1003;48.002;7.788;2023-12-14T00:20:25;7.10;99.90
2002;DHT22;1003;48.002;7.788;2023-12-14T00:22:52;7.10;99.90
2002;DHT22;1003;48.002;7.788;2023-12-14T00:25:18;7.10;99.90
2002;DHT22;1003;48.002;7.788;2023-12-14T00:27:45;7.10;99.90
2002;DHT22;1003;48.002;7.788;2023-12-14T00:30:13;7.10;99.90
2002;DHT22;1003;48.002;7.788;2023-12-14T00:32:40;7.10;99.90
2002;DHT22;1003;48.002;7.788;2023-12-14T00:35:08;7.10;99.90
2002;DHT22;1003;48.002;7.788;2023-12-14T00:37:35;7.10;99.90
2002;DHT22;1003;48.002;7.788;2023-12-14T00:40:02;7.10;99.90
2002;DHT22;1003;48.002;7.788;2023-12-14T00:42:30;7.10;99.90
2002;DHT22;1003;48.002;7.788;2023-12-14T00:44:56;7.10;99.90
2002;DHT22;1003;48.002;7.788;2023-12-14T00:47:23;7.10;99.90
2002;DHT22;1003;48.002;7.788;2023-12-14T00:49:50;7.10;99.90
2002;DHT22;1003;48.002;7.788;2023-12-14T00:52:18;7.10;99.90
2002;DHT22;1003;48.002;7.788;2023-12-14T00:54:45;7.00;99.90
2002;DHT22;1003;48.002;7.788;2023-12-14T00:57:12;7.10;99.90
2002;DHT22;1003;48.002;7.788;2023-12-14T00:59:39;7.00;99.90
2002;DHT22;1003;48.002;7.788;2023-12-14T01:02:06;7.10;99.90
2002;DHT22;1003;48.002;7.788;2023-12-14T01:04:33;7.00;99.90
2002;DHT22;1003;48.002;7.788;2023-12-14T01:07:00;7.00;99.90
2002;DHT22;1003;48.002;7.788;2023-12-14T01:09:28;7.00;99.90
2002;DHT22;1003;48.002;7.788;2023-12-14T01:11:55;7.00;99.90
2002;DHT22;1003;48.002;7.788;2023-12-14T01:14:22;6.90;99.90
2002;DHT22;1003;48.002;7.788;2023-12-14T01:16:49;6.90;99.90
2002;DHT22;1003;48.002;7.788;2023-12-14T01:19:16;6.90;99.90
2002;DHT22;1003;48.002;7.788;2023-12-14T01:21:43;6.90;99.90
2002;DHT22;1003;48.002;7.788;2023-12-14T01:24:10;6.90;99.90
2002;DHT22;1003;48.002;7.788;2023-12-14T01:26:38;6.80;99.90
2002;DHT22;1003;48.002;7.788;2023-12-14T01:29:05;6.90;99.90
2002;DHT22;1003;48.002;7.788;2023-12-14T01:31:32;6.90;99.90
2002;DHT22;1003;48.002;7.788;2023-12-14T01:33:59;6.90;99.90
2002;DHT22;1003;48.002;7.788;2023-12-14T01:36:26;6.90;99.90
2002;DHT22;1003;48.002;7.788;2023-12-14T01:38:53;6.90;99.90
2002;DHT22;1003;48.002;7.788;2023-12-14T01:41:20;6.90;99.90
2002;DHT22;1003;48.002;7.788;2023-12-14T01:43:48;6.90;99.90
2002;DHT22;1003;48.002;7.788;2023-12-14T01:46:15;6.90;99.90
2002;DHT22;1003;48.002;7.788;2023-12-14T01:48:42;6.90;99.90
2002;DHT22;1003;48.002;7.788;2023-12-14T01:51:09;6.90;99.90
2002;DHT22;1003;48.002;7.788;2023-12-14T01:53:36;7.00;99.90
2002;DHT22;1003;48.002;7.788;2023-12-14T01:56:03;7.00;99.90
2002;DHT22;1003;48.002;7.788;2023-12-14T01:58:31;6.90;99.90
2002;DHT22;1003;48.002;7.788;2023-12-14T02:01:04;7.00;99.90
2002;DHT22;1003;48.002;7.788;2023-12-14T02:03:44;6.90;99.90
2002;DHT22;1003;48.002;7.788;2023-12-14T02:06:11;6.90;99.90
2002;DHT22;1003;48.002;7.788;2023-12-14T02:08:38;6.90;99.90
2002;DHT22;1003;48.002;7.788;2023-12-14T02:11:05;6.90;99.90
2002;DHT22;1003;48.002;7.788;2023-12-14T02:13:32;6.90;99.90
2002;DHT22;1003;48.002;7.788;2023-12-14T02:16:01;6.90;99.90
2002;DHT22;1003;48.002;7.788;2023-12-14T02:18:28;6.90;99.90
2002;DHT22;1003;48.002;7.788;2023-12-14T02:20:54;6.90;99.90
2002;DHT22;1003;48.002;7.788;2023-12-14T02:23:23;6.90;99.90
2002;DHT22;1003;48.002;7.788;2023-12-14T02:25:50;6.80;99.90
2002;DHT22;1003;48.002;7.788;2023-12-14T02:28:16;6.80;99.90
2002;DHT22;1003;48.002;7.788;2023-12-14T02:30:43;6.80;99.90
2002;DHT22;1003;48.002;7.788;2023-12-14T02:33:10;6.90;99.90
2002;DHT22;1003;48.002;7.788;2023-12-14T02:35:37;6.80;99.90
2002;DHT22;1003;48.002;7.788;2023-12-14T02:38:04;6.80;99.90
2002;DHT22;1003;48.002;7.788;2023-12-14T02:40:33;6.80;99.90
2002;DHT22;1003;48.002;7.788;2023-12-14T02:42:59;6.80;99.90
2002;DHT22;1003;48.002;7.788;2023-12-14T02:45:26;6.80;99.90
2002;DHT22;1003;48.002;7.788;2023-12-14T02:47:53;6.80;99.90
2002;DHT22;1003;48.002;7.788;2023-12-14T02:50:20;6.70;99.90
2002;DHT22;1003;48.002;7.788;2023-12-14T02:52:47;6.70;99.90
2002;DHT22;1003;48.002;7.788;2023-12-14T02:55:14;6.70;99.90
2002;DHT22;1003;48.002;7.788;2023-12-14T02:57:42;6.70;99.90
2002;DHT22;1003;48.002;7.788;2023-12-14T03:00:11;6.70;99.90
2002;DHT22;1003;48.002;7.788;2023-12-14T03:02:39;6.80;99.90
2002;DHT22;1003;48.002;7.788;2023-12-14T03:05:06;6.80;99.90
2002;DHT22;1003;48.002;7.788;2023-12-14T03:07:33;6.80;99.90
2002;DHT22;1003;48.002;7.788;2023-12-14T03:10:01;6.80;99.90
2002;DHT22;1003;48.002;7.788;2023-12-14T03:12:29;6.90;99.90
2002;DHT22;1003;48.002;7.788;2023-12-14T03:14:57;6.80;99.90
2002;DHT22;1003;48.002;7.788;2023-12-14T03:17:24;6.80;99.90
2002;DHT22;1003;48.002;7.788;2023-12-14T03:19:51;6.80;99.90
2002;DHT22;1003;48.002;7.788;2023-12-14T03:22:18;6.90;99.90
2002;DHT22;1003;48.002;7.788;2023-12-14T03:24:46;6.90;99.90
2002;DHT22;1003;48.002;7.788;2023-12-14T03:27:13;6.90;99.90
2002;DHT22;1003;48.002;7.788;2023-12-14T03:29:40;6.90;99.90
2002;DHT22;1003;48.002;7.788;2023-12-14T03:32:08;6.90;99.90
2002;DHT22;1003;48.002;7.788;2023-12-14T03:34:35;7.00;99.90
2002;DHT22;1003;48.002;7.788;2023-12-14T03:37:02;6.90;99.90
2002;DHT22;1003;48.002;7.788;2023-12-14T03:39:29;6.90;99.90
2002;DHT22;1003;48.002;7.788;2023-12-14T03:41:56;6.90;99.90
2002;DHT22;1003;48.002;7.788;2023-12-14T03:44:23;6.90;99.90
2002;DHT22;1003;48.002;7.788;2023-12-14T03:46:50;6.90;99.90
2002;DHT22;1003;48.002;7.788;2023-12-14T03:49:18;6.90;99.90
2002;DHT22;1003;48.002;7.788;2023-12-14T03:51:45;6.90;99.90
2002;DHT22;1003;48.002;7.788;2023-12-14T03:54:13;6.90;99.90
2002;DHT22;1003;48.002;7.788;2023-12-14T03:56:40;6.90;99.90
2002;DHT22;1003;48.002;7.788;2023-12-14T03:59:06;6.90;99.90
2002;DHT22;1003;48.002;7.788;2023-12-14T04:01:33;6.90;99.90
2002;DHT22;1003;48.002;7.788;2023-12-14T04:04:04;6.90;99.90
2002;DHT22;1003;48.002;7.788;2023-12-14T04:06:32;6.90;99.90
2002;DHT22;1003;48.002;7.788;2023-12-14T04:08:59;6.90;99.90
2002;DHT22;1003;48.002;7.788;2023-12-14T04:11:26;6.90;99.90
2002;DHT22;1003;48.002;7.788;2023-12-14T04:13:53;6.90;99.90
2002;DHT22;1003;48.002;7.788;2023-12-14T04:16:20;6.90;99.90
2002;DHT22;1003;48.002;7.788;2023-12-14T04:18:47;6.90;99.90
2002;DHT22;1003;48.002;7.788;2023-12-14T04:21:15;6.90;99.90
2002;DHT22;1003;48.002;7.788;2023-12-14T04:23:43;7.00;99.90
2002;DHT22;1003;48.002;7.788;2023-12-14T04:26:11;6.90;99.90
2002;DHT22;1003;48.002;7.788;2023-12-14T04:28:39;7.10;99.90
2002;DHT22;1003;48.002;7.788;2023-12-14T04:31:06;7.10;99.90
2002;DHT22;1003;48.002;7.788;2023-12-14T04:33:33;7.00;99.90
2002;DHT22;1003;48.002;7.788;2023-12-14T04:35:59;7.00;99.90
2002;DHT22;1003;48.002;7.788;2023-12-14T04:38:26;7.00;99.90
2002;DHT22;1003;48.002;7.788;2023-12-14T04:40:55;7.00;99.90
2002;DHT22;1003;48.002;7.788;2023-12-14T04:43:21;6.90;99.90
2002;DHT22;1003;48.002;7.788;2023-12-14T04:45:48;6.90;99.90
2002;DHT22;1003;48.002;7.788;2023-12-14T04:48:15;6.90;99.90
2002;DHT22;1003;48.002;7.788;2023-12-14T04:50:42;7.00;99.90
2002;DHT22;1003;48.002;7.788;2023-12-14T04:53:09;6.90;99.90
2002;DHT22;1003;48.002;7.788;2023-12-14T04:55:36;6.90;99.90
2002;DHT22;1003;48.002;7.788;2023-12-14T04:58:04;6.90;99.90
2002;DHT22;1003;48.002;7.788;2023-12-14T05:00:31;6.90;99.90
2002;DHT22;1003;48.002;7.788;2023-12-14T05:02:58;7.00;99.90
2002;DHT22;1003;48.002;7.788;2023-12-14T05:05:25;7.00;99.90
2002;DHT22;1003;48.002;7.788;2023-12-14T05:07:52;7.00;99.90
2002;DHT22;1003;48.002;7.788;2023-12-14T05:10:19;6.90;99.90
2002;DHT22;1003;48.002;7.788;2023-12-14T05:12:45;6.90;99.90
2002;DHT22;1003;48.002;7.788;2023-12-14T05:15:14;6.90;99.90
2002;DHT22;1003;48.002;7.788;2023-12-14T05:17:41;6.80;99.90
2002;DHT22;1003;48.002;7.788;2023-12-14T05:20:08;6.80;99.90
2002;DHT22;1003;48.002;7.788;2023-12-14T05:22:36;6.80;99.90
2002;DHT22;1003;48.002;7.788;2023-12-14T05:25:03;6.80;99.90
2002;DHT22;1003;48.002;7.788;2023-12-14T05:27:31;6.80;99.90
2002;DHT22;1003;48.002;7.788;2023-12-14T05:29:58;6.80;99.90
2002;DHT22;1003;48.002;7.788;2023-12-14T05:32:26;6.80;99.90
2002;DHT22;1003;48.002;7.788;2023-12-14T05:34:53;6.80;99.90
2002;DHT22;1003;48.002;7.788;2023-12-14T05:37:20;6.80;99.90
2002;DHT22;1003;48.002;7.788;2023-12-14T05:39:46;6.80;99.90
2002;DHT22;1003;48.002;7.788;2023-12-14T05:42:16;6.80;99.90
2002;DHT22;1003;48.002;7.788;2023-12-14T05:44:43;6.80;99.90
2002;DHT22;1003;48.002;7.788;2023-12-14T05:47:11;6.80;99.90
2002;DHT22;1003;48.002;7.788;2023-12-14T05:49:42;6.80;99.90
2002;DHT22;1003;48.002;7.788;2023-12-14T05:52:09;6.80;99.90
2002;DHT22;1003;48.002;7.788;2023-12-14T05:54:37;6.80;99.90
2002;DHT22;1003;48.002;7.788;2023-12-14T05:57:05;6.90;99.90
2002;DHT22;1003;48.002;7.788;2023-12-14T05:59:32;6.90;99.90
2002;DHT22;1003;48.002;7.788;2023-12-14T06:02:00;6.90;99.90
2002;DHT22;1003;48.002;7.788;2023-12-14T06:04:27;6.90;99.90
2002;DHT22;1003;48.002;7.788;2023-12-14T06:06:56;6.90;99.90
2002;DHT22;1003;48.002;7.788;2023-12-14T06:09:23;6.90;99.90
2002;DHT22;1003;48.002;7.788;2023-12-14T06:11:57;6.90;99.90
2002;DHT22;1003;48.002;7.788;2023-12-14T06:14:24;6.90;99.90
2002;DHT22;1003;48.002;7.788;2023-12-14T06:16:51;6.90;99.90
2002;DHT22;1003;48.002;7.788;2023-12-14T06:19:18;6.90;99.90
2002;DHT22;1003;48.002;7.788;2023-12-14T06:21:45;6.80;99.90
2002;DHT22;1003;48.002;7.788;2023-12-14T06:24:13;6.80;99.90
2002;DHT22;1003;48.002;7.788;2023-12-14T06:26:41;6.80;99.90
2002;DHT22;1003;48.002;7.788;2023-12-14T06:29:08;6.80;99.90
2002;DHT22;1003;48.002;7.788;2023-12-14T06:31:35;6.80;99.90
2002;DHT22;1003;48.002;7.788;2023-12-14T06:34:02;6.80;99.90
2002;DHT22;1003;48.002;7.788;2023-12-14T06:36:29;6.80;99.90
2002;DHT22;1003;48.002;7.788;2023-12-14T06:38:57;6.80;99.90
2002;DHT22;1003;48.002;7.788;2023-12-14T06:41:26;6.80;99.90
2002;DHT22;1003;48.002;7.788;2023-12-14T06:43:55;6.90;99.90
2002;DHT22;1003;48.002;7.788;2023-12-14T06:46:22;6.90;99.90
2002;DHT22;1003;48.002;7.788;2023-12-14T06:48:49;6.90;99.90
2002;DHT22;1003;48.002;7.788;2023-12-14T06:51:15;6.90;99.90
2002;DHT22;1003;48.002;7.788;2023-12-14T06:53:43;6.90;99.90
2002;DHT22;1003;48.002;7.788;2023-12-14T06:56:11;6.90;99.90
2002;DHT22;1003;48.002;7.788;2023-12-14T06:58:40;6.90;99.90
2002;DHT22;1003;48.002;7.788;2023-12-14T07:01:12;6.90;99.90
2002;DHT22;1003;48.002;7.788;2023-12-14T07:03:40;6.90;99.90
2002;DHT22;1003;48.002;7.788;2023-12-14T07:06:07;6.90;99.90
2002;DHT22;1003;48.002;7.788;2023-12-14T07:08:38;7.00;99.90
2002;DHT22;1003;48.002;7.788;2023-12-14T07:11:05;6.90;99.90
2002;DHT22;1003;48.002;7.788;2023-12-14T07:13:32;6.90;99.90
2002;DHT22;1003;48.002;7.788;2023-12-14T07:16:03;6.90;99.90
2002;DHT22;1003;48.002;7.788;2023-12-14T07:18:31;6.90;99.90
2002;DHT22;1003;48.002;7.788;2023-12-14T07:20:58;6.90;99.90
2002;DHT22;1003;48.002;7.788;2023-12-14T07:23:25;6.90;99.90
2002;DHT22;1003;48.002;7.788;2023-12-14T07:25:52;7.00;99.90
2002;DHT22;1003;48.002;7.788;2023-12-14T07:28:19;6.90;99.90
2002;DHT22;1003;48.002;7.788;2023-12-14T07:30:46;6.90;99.90
2002;DHT22;1003;48.002;7.788;2023-12-14T07:33:15;7.00;99.90
2002;DHT22;1003;48.002;7.788;2023-12-14T07:35:42;6.90;99.90
2002;DHT22;1003;48.002;7.788;2023-12-14T07:38:10;6.90;99.90
2002;DHT22;1003;48.002;7.788;2023-12-14T07:40:38;7.00;99.90
2002;DHT22;1003;48.002;7.788;2023-12-14T07:43:05;7.00;99.90
2002;DHT22;1003;48.002;7.788;2023-12-14T07:45:32;7.00;99.90
2002;DHT22;1003;48.002;7.788;2023-12-14T07:47:59;7.00;99.90
2002;DHT22;1003;48.002;7.788;2023-12-14T07:50:28;7.00;99.90
2002;DHT22;1003;48.002;7.788;2023-12-14T07:52:55;7.00;99.90
2002;DHT22;1003;48.002;7.788;2023-12-14T07:55:22;7.10;99.90
2002;DHT22;1003;48.002;7.788;2023-12-14T07:57:49;7.10;99.90
2002;DHT22;1003;48.002;7.788;2023-12-14T08:00:16;7.20;99.90
2002;DHT22;1003;48.002;7.788;2023-12-14T08:02:43;7.20;99.90
2002;DHT22;1003;48.002;7.788;2023-12-14T08:05:10;7.20;99.90
2002;DHT22;1003;48.002;7.788;2023-12-14T08:07:39;7.30;99.90
2002;DHT22;1003;48.002;7.788;2023-12-14T08:10:07;7.30;99.90
2002;DHT22;1003;48.002;7.788;2023-12-14T08:12:34;7.20;99.90
2002;DHT22;1003;48.002;7.788;2023-12-14T08:15:01;7.20;99.90
2002;DHT22;1003;48.002;7.788;2023-12-14T08:17:28;7.30;99.90
2002;DHT22;1003;48.002;7.788;2023-12-14T08:19:55;7.30;99.90
2002;DHT22;1003;48.002;7.788;2023-12-14T08:22:22;7.40;99.90
2002;DHT22;1003;48.002;7.788;2023-12-14T08:24:51;7.40;99.90
2002;DHT22;1003;48.002;7.788;2023-12-14T08:27:18;7.40;99.90
2002;DHT22;1003;48.002;7.788;2023-12-14T08:29:45;7.50;99.90
2002;DHT22;1003;48.002;7.788;2023-12-14T08:32:12;7.40;99.90
2002;DHT22;1003;48.002;7.788;2023-12-14T08:34:40;7.40;99.90
2002;DHT22;1003;48.002;7.788;2023-12-14T08:37:07;7.40;99.90
2002;DHT22;1003;48.002;7.788;2023-12-14T08:39:34;7.30;99.90
2002;DHT22;1003;48.002;7.788;2023-12-14T08:42:03;7.40;99.90
2002;DHT22;1003;48.002;7.788;2023-12-14T08:44:30;7.40;99.90
2002;DHT22;1003;48.002;7.788;2023-12-14T08:46:57;7.30;99.90
2002;DHT22;1003;48.002;7.788;2023-12-14T08:49:24;7.40;99.90
2002;DHT22;1003;48.002;7.788;2023-12-14T08:51:51;7.40;99.90
2002;DHT22;1003;48.002;7.788;2023-12-14T08:54:18;7.50;99.90
2002;DHT22;1003;48.002;7.788;2023-12-14T08:56:44;7.60;99.90
2002;DHT22;1003;48.002;7.788;2023-12-14T08:59:13;7.60;99.90
2002;DHT22;1003;48.002;7.788;2023-12-14T09:01:40;7.60;99.90
2002;DHT22;1003;48.002;7.788;2023-12-14T09:04:07;7.60;99.90
2002;DHT22;1003;48.002;7.788;2023-12-14T09:06:33;7.60;99.90
2002;DHT22;1003;48.002;7.788;2023-12-14T09:09:00;7.60;99.90
2002;DHT22;1003;48.002;7.788;2023-12-14T09:11:29;7.60;99.90
2002;DHT22;1003;48.002;7.788;2023-12-14T09:13:56;7.60;99.90
2002;DHT22;1003;48.002;7.788;2023-12-14T09:16:25;7.60;99.90
2002;DHT22;1003;48.002;7.788;2023-12-14T09:18:52;7.70;99.90
2002;DHT22;1003;48.002;7.788;2023-12-14T09:21:19;7.80;99.90
2002;DHT22;1003;48.002;7.788;2023-12-14T09:23:47;7.80;99.90
2002;DHT22;1003;48.002;7.788;2023-12-14T09:26:14;7.80;99.90
2002;DHT22;1003;48.002;7.788;2023-12-14T09:28:41;7.90;99.90
2002;DHT22;1003;48.002;7.788;2023-12-14T09:31:08;7.80;99.90
2002;DHT22;1003;48.002;7.788;2023-12-14T09:33:37;7.90;99.90
2002;DHT22;1003;48.002;7.788;2023-12-14T09:36:05;7.90;99.90
2002;DHT22;1003;48.002;7.788;2023-12-14T09:38:32;7.90;99.90
2002;DHT22;1003;48.002;7.788;2023-12-14T10:03:23;8.20;99.90
2002;DHT22;1003;48.002;7.788;2023-12-14T10:05:52;8.30;99.90
2002;DHT22;1003;48.002;7.788;2023-12-14T10:08:19;8.50;99.90
2002;DHT22;1003;48.002;7.788;2023-12-14T10:10:48;8.60;99.90
2002;DHT22;1003;48.002;7.788;2023-12-14T10:13:18;8.70;99.90
2002;DHT22;1003;48.002;7.788;2023-12-14T10:15:47;8.70;99.90
2002;DHT22;1003;48.002;7.788;2023-12-14T10:18:22;8.60;99.90
2002;DHT22;1003;48.002;7.788;2023-12-14T10:20:50;8.60;99.90
2002;DHT22;1003;48.002;7.788;2023-12-14T10:23:18;8.50;99.90
2002;DHT22;1003;48.002;7.788;2023-12-14T10:25:46;8.40;99.90
2002;DHT22;1003;48.002;7.788;2023-12-14T10:28:13;8.40;99.90
2002;DHT22;1003;48.002;7.788;2023-12-14T10:30:40;8.40;99.90
2002;DHT22;1003;48.002;7.788;2023-12-14T10:33:07;8.40;99.90
2002;DHT22;1003;48.002;7.788;2023-12-14T10:35:36;8.40;99.90
2002;DHT22;1003;48.002;7.788;2023-12-14T10:38:04;8.30;99.90
2002;DHT22;1003;48.002;7.788;2023-12-14T10:40:32;8.30;99.90
2002;DHT22;1003;48.002;7.788;2023-12-14T10:43:03;8.40;99.90
2002;DHT22;1003;48.002;7.788;2023-12-14T10:45:33;8.40;99.90
2002;DHT22;1003;48.002;7.788;2023-12-14T10:48:00;8.40;99.90
2002;DHT22;1003;48.002;7.788;2023-12-14T10:50:30;8.50;99.90
2002;DHT22;1003;48.002;7.788;2023-12-14T10:52:59;8.60;99.90
2002;DHT22;1003;48.002;7.788;2023-12-14T10:55:31;8.60;99.90
2002;DHT22;1003;48.002;7.788;2023-12-14T10:58:03;8.60;99.90
2002;DHT22;1003;48.002;7.788;2023-12-14T11:00:31;8.60;99.90
2002;DHT22;1003;48.002;7.788;2023-12-14T11:02:59;8.70;99.90
2002;DHT22;1003;48.002;7.788;2023-12-14T11:05:27;8.70;99.90
2002;DHT22;1003;48.002;7.788;2023-12-14T11:07:56;8.70;99.90
2002;DHT22;1003;48.002;7.788;2023-12-14T11:10:37;8.70;99.90
2002;DHT22;1003;48.002;7.788;2023-12-14T11:13:07;8.80;99.90
2002;DHT22;1003;48.002;7.788;2023-12-14T11:15:38;8.90;99.90
2002;DHT22;1003;48.002;7.788;2023-12-14T11:18:25;8.90;99.90
2002;DHT22;1003;48.002;7.788;2023-12-14T11:20:57;9.00;99.90
2002;DHT22;1003;48.002;7.788;2023-12-14T11:23:32;8.90;99.90
2002;DHT22;1003;48.002;7.788;2023-12-14T11:26:03;8.90;99.90
2002;DHT22;1003;48.002;7.788;2023-12-14T11:28:33;9.00;99.90
2002;DHT22;1003;48.002;7.788;2023-12-14T11:31:02;9.00;99.90
2002;DHT22;1003;48.002;7.788;2023-12-14T11:33:32;9.10;99.90
2002;DHT22;1003;48.002;7.788;2023-12-14T11:36:01;9.10;99.90
2002;DHT22;1003;48.002;7.788;2023-12-14T11:38:30;9.10;99.90
2002;DHT22;1003;48.002;7.788;2023-12-14T11:40:58;9.10;99.90
2002;DHT22;1003;48.002;7.788;2023-12-14T11:43:25;9.20;99.90
2002;DHT22;1003;48.002;7.788;2023-12-14T11:45:53;9.10;99.90
2002;DHT22;1003;48.002;7.788;2023-12-14T11:48:21;9.00;99.90
2002;DHT22;1003;48.002;7.788;2023-12-14T11:50:48;9.00;99.90
2002;DHT22;1003;48.002;7.788;2023-12-14T11:53:15;9.00;99.90
2002;DHT22;1003;48.002;7.788;2023-12-14T11:55:43;8.90;99.90
2002;DHT22;1003;48.002;7.788;2023-12-14T11:58:12;8.90;99.90
2002;DHT22;1003;48.002;7.788;2023-12-14T12:00:40;8.90;99.90
2002;DHT22;1003;48.002;7.788;2023-12-14T12:03:09;8.90;99.90
2002;DHT22;1003;48.002;7.788;2023-12-14T12:05:38;9.00;99.90
2002;DHT22;1003;48.002;7.788;2023-12-14T12:08:06;9.00;99.90
2002;DHT22;1003;48.002;7.788;2023-12-14T12:10:35;9.10;99.90
2002;DHT22;1003;48.002;7.788;2023-12-14T12:13:06;9.00;99.90
2002;DHT22;1003;48.002;7.788;2023-12-14T12:15:34;9.10;99.90
2002;DHT22;1003;48.002;7.788;2023-12-14T12:18:05;9.10;99.90
2002;DHT22;1003;48.002;7.788;2023-12-14T12:20:32;9.10;99.90
2002;DHT22;1003;48.002;7.788;2023-12-14T12:23:00;9.10;99.90
2002;DHT22;1003;48.002;7.788;2023-12-14T12:25:28;9.30;99.90
2002;DHT22;1003;48.002;7.788;2023-12-14T12:27:56;9.30;99.90
2002;DHT22;1003;48.002;7.788;2023-12-14T12:30:24;9.40;99.90
2002;DHT22;1003;48.002;7.788;2023-12-14T12:32:52;9.40;99.90
2002;DHT22;1003;48.002;7.788;2023-12-14T12:35:21;9.40;99.90
2002;DHT22;1003;48.002;7.788;2023-12-14T12:37:52;9.40;99.90
2002;DHT22;1003;48.002;7.788;2023-12-14T12:40:21;9.40;99.90
2002;DHT22;1003;48.002;7.788;2023-12-14T12:42:51;9.40;99.90
2002;DHT22;1003;48.002;7.788;2023-12-14T12:45:18;9.50;99.90
2002;DHT22;1003;48.002;7.788;2023-12-14T12:47:49;9.50;99.90
2002;DHT22;1003;48.002;7.788;2023-12-14T12:50:15;9.50;99.90
2002;DHT22;1003;48.002;7.788;2023-12-14T12:52:42;9.40;99.90
2002;DHT22;1003;48.002;7.788;2023-12-14T12:55:11;9.30;99.90
2002;DHT22;1003;48.002;7.788;2023-12-14T12:57:38;9.20;99.90
2002;DHT22;1003;48.002;7.788;2023-12-14T13:00:06;9.30;99.90
2002;DHT22;1003;48.002;7.788;2023-12-14T13:02:36;9.30;99.90
2002;DHT22;1003;48.002;7.788;2023-12-14T13:05:06;9.30;99.90
2002;DHT22;1003;48.002;7.788;2023-12-14T13:07:34;9.30;99.90
2002;DHT22;1003;48.002;7.788;2023-12-14T13:10:01;9.30;99.90
2002;DHT22;1003;48.002;7.788;2023-12-14T13:12:29;9.30;99.90
2002;DHT22;1003;48.002;7.788;2023-12-14T13:14:55;9.30;99.90
2002;DHT22;1003;48.002;7.788;2023-12-14T13:17:22;9.30;99.90
2002;DHT22;1003;48.002;7.788;2023-12-14T13:19:49;9.30;99.90
2002;DHT22;1003;48.002;7.788;2023-12-14T13:22:19;9.30;99.90
2002;DHT22;1003;48.002;7.788;2023-12-14T13:24:46;9.30;99.90
2002;DHT22;1003;48.002;7.788;2023-12-14T13:27:13;9.30;99.90
2002;DHT22;1003;48.002;7.788;2023-12-14T13:29:40;9.30;99.90
2002;DHT22;1003;48.002;7.788;2023-12-14T13:32:07;9.40;99.90
2002;DHT22;1003;48.002;7.788;2023-12-14T13:34:34;9.40;99.90
2002;DHT22;1003;48.002;7.788;2023-12-14T13:37:00;9.40;99.90
2002;DHT22;1003;48.002;7.788;2023-12-14T13:39:30;9.40;99.90
2002;DHT22;1003;48.002;7.788;2023-12-14T13:41:59;9.50;99.90
2002;DHT22;1003;48.002;7.788;2023-12-14T13:44:26;9.40;99.90
2002;DHT22;1003;48.002;7.788;2023-12-14T13:46:53;9.30;99.90
2002;DHT22;1003;48.002;7.788;2023-12-14T13:49:20;9.30;99.90
2002;DHT22;1003;48.002;7.788;2023-12-14T13:51:47;9.30;99.90
2002;DHT22;1003;48.002;7.788;2023-12-14T13:54:14;9.30;99.90
2002;DHT22;1003;48.002;7.788;2023-12-14T13:56:42;9.30;99.90
2002;DHT22;1003;48.002;7.788;2023-12-14T13:59:09;9.30;99.90
2002;DHT22;1003;48.002;7.788;2023-12-14T14:01:36;9.30;99.90
2002;DHT22;1003;48.002;7.788;2023-12-14T14:04:04;9.30;99.90
2002;DHT22;1003;48.002;7.788;2023-12-14T14:06:31;9.30;99.90
2002;DHT22;1003;48.002;7.788;2023-12-14T14:08:58;9.30;99.90
2002;DHT22;1003;48.002;7.788;2023-12-14T14:11:24;9.20;99.90
2002;DHT22;1003;48.002;7.788;2023-12-14T14:13:53;9.10;99.90
2002;DHT22;1003;48.002;7.788;2023-12-14T14:16:20;8.90;99.90
2002;DHT22;1003;48.002;7.788;2023-12-14T14:18:46;8.90;99.90
2002;DHT22;1003;48.002;7.788;2023-12-14T14:21:13;8.80;99.90
2002;DHT22;1003;48.002;7.788;2023-12-14T14:23:40;8.80;99.90
2002;DHT22;1003;48.002;7.788;2023-12-14T14:26:07;8.80;99.90
2002;DHT22;1003;48.002;7.788;2023-12-14T14:28:34;8.80;99.90
2002;DHT22;1003;48.002;7.788;2023-12-14T14:31:02;8.80;99.90
2002;DHT22;1003;48.002;7.788;2023-12-14T14:33:30;8.80;99.90
2002;DHT22;1003;48.002;7.788;2023-12-14T14:35:56;8.90;99.90
2002;DHT22;1003;48.002;7.788;2023-12-14T14:38:24;8.80;99.90
2002;DHT22;1003;48.002;7.788;2023-12-14T14:40:51;8.80;99.90
2002;DHT22;1003;48.002;7.788;2023-12-14T14:43:18;8.70;99.90
2002;DHT22;1003;48.002;7.788;2023-12-14T14:45:46;8.70;99.90
2002;DHT22;1003;48.002;7.788;2023-12-14T14:48:14;8.60;99.90
2002;DHT22;1003;48.002;7.788;2023-12-14T14:50:40;8.60;99.90
2002;DHT22;1003;48.002;7.788;2023-12-14T14:53:07;8.50;99.90
2002;DHT22;1003;48.002;7.788;2023-12-14T14:55:34;8.50;99.90
2002;DHT22;1003;48.002;7.788;2023-12-14T14:58:01;8.40;99.90
2002;DHT22;1003;48.002;7.788;2023-12-14T15:00:28;8.50;99.90
2002;DHT22;1003;48.002;7.788;2023-12-14T15:02:55;8.40;99.90
2002;DHT22;1003;48.002;7.788;2023-12-14T15:05:23;8.30;99.90
2002;DHT22;1003;48.002;7.788;2023-12-14T15:07:50;8.30;99.90
2002;DHT22;1003;48.002;7.788;2023-12-14T15:10:17;8.20;99.90
2002;DHT22;1003;48.002;7.788;2023-12-14T15:12:44;8.10;99.90
2002;DHT22;1003;48.002;7.788;2023-12-14T15:15:11;8.20;99.90
2002;DHT22;1003;48.002;7.788;2023-12-14T15:17:38;8.00;99.90
2002;DHT22;1003;48.002;7.788;2023-12-14T15:20:06;7.90;99.90
2002;DHT22;1003;48.002;7.788;2023-12-14T15:22:36;7.80;99.90
2002;DHT22;1003;48.002;7.788;2023-12-14T15:25:04;7.60;99.90
2002;DHT22;1003;48.002;7.788;2023-12-14T15:27:31;7.50;99.90
2002;DHT22;1003;48.002;7.788;2023-12-14T15:29:59;7.60;99.90
2002;DHT22;1003;48.002;7.788;2023-12-14T15:32:26;7.50;99.90
2002;DHT22;1003;48.002;7.788;2023-12-14T15:34:52;7.40;99.90
2002;DHT22;1003;48.002;7.788;2023-12-14T15:37:20;7.20;99.90
2002;DHT22;1003;48.002;7.788;2023-12-14T15:39:48;7.10;99.90
2002;DHT22;1003;48.002;7.788;2023-12-14T15:42:15;7.00;99.90
2002;DHT22;1003;48.002;7.788;2023-12-14T15:44:43;7.00;99.90
2002;DHT22;1003;48.002;7.788;2023-12-14T15:47:10;7.00;99.90
2002;DHT22;1003;48.002;7.788;2023-12-14T15:49:37;7.00;99.90
2002;DHT22;1003;48.002;7.788;2023-12-14T15:52:04;7.00;99.90
2002;DHT22;1003;48.002;7.788;2023-12-14T15:54:31;7.10;99.90
2002;DHT22;1003;48.002;7.788;2023-12-14T15:56:59;7.00;99.90
2002;DHT22;1003;48.002;7.788;2023-12-14T15:59:26;6.90;99.90
2002;DHT22;1003;48.002;7.788;2023-12-14T16:01:53;6.90;99.90
2002;DHT22;1003;48.002;7.788;2023-12-14T16:04:20;6.90;99.90
2002;DHT22;1003;48.002;7.788;2023-12-14T16:06:47;6.80;99.90
2002;DHT22;1003;48.002;7.788;2023-12-14T16:09:14;6.70;99.90
2002;DHT22;1003;48.002;7.788;2023-12-14T16:11:42;6.60;99.90
2002;DHT22;1003;48.002;7.788;2023-12-14T16:14:10;6.60;99.90
2002;DHT22;1003;48.002;7.788;2023-12-14T16:16:37;6.60;99.90
2002;DHT22;1003;48.002;7.788;2023-12-14T16:19:04;6.60;99.90
2002;DHT22;1003;48.002;7.788;2023-12-14T16:21:31;6.70;99.90
2002;DHT22;1003;48.002;7.788;2023-12-14T16:24:02;6.70;99.90
2002;DHT22;1003;48.002;7.788;2023-12-14T16:26:30;6.70;99.90
2002;DHT22;1003;48.002;7.788;2023-12-14T16:28:57;6.70;99.90
2002;DHT22;1003;48.002;7.788;2023-12-14T16:47:06;6.90;99.90
2002;DHT22;1003;48.002;7.788;2023-12-14T16:49:35;6.90;99.90
2002;DHT22;1003;48.002;7.788;2023-12-14T16:52:03;6.90;99.90
2002;DHT22;1003;48.002;7.788;2023-12-14T16:54:31;6.90;99.90
2002;DHT22;1003;48.002;7.788;2023-12-14T16:56:58;6.90;99.90